createdAt,value
2019-04-28T00:01:22.817Z,64.93
2019-04-28T00:04:01.381Z,65.23
2019-04-28T00:06:41.748Z,64.40
2019-04-28T00:09:21.289Z,64.21
2019-04-28T00:12:01.736Z,64.69
2019-04-28T00:14:41.825Z,63.40
2019-04-28T00:17:21.273Z,62.55
2019-04-28T00:20:01.373Z,62.75
2019-04-28T00:22:54.309Z,62.33
2019-04-28T00:25:33.889Z,62.85
2019-04-28T00:28:11.719Z,62.32
2019-04-28T00:30:51.614Z,61.93
2019-04-28T00:33:28.685Z,62.26
2019-04-28T00:36:06.585Z,61.88
2019-04-28T00:38:44.732Z,61.97
2019-04-28T00:41:22.297Z,61.63
2019-04-28T00:43:59.423Z,61.42
2019-04-28T00:46:41.008Z,60.64
2019-04-28T00:49:23.326Z,60.64
2019-04-28T00:52:03.107Z,61.10
2019-04-28T00:54:42.059Z,60.85
2019-04-28T00:57:21.063Z,60.57
2019-04-28T01:00:02.075Z,59.51
2019-04-28T01:02:44.863Z,61.81
2019-04-28T01:05:22.002Z,61.43
2019-04-28T01:08:01.157Z,60.81
2019-04-28T01:10:40.891Z,60.77
2019-04-28T01:13:18.673Z,61.60
2019-04-28T01:16:19.323Z,59.19
2019-04-28T01:19:05.499Z,59.24
2019-04-28T01:22:03.288Z,59.90
2019-04-28T01:24:41.083Z,57.61
2019-04-28T01:27:37.528Z,55.98
2019-04-28T01:30:22.972Z,57.38
2019-04-28T01:33:06.129Z,59.29
2019-04-28T01:35:43.782Z,57.88
2019-04-28T01:38:21.319Z,58.90
2019-04-28T01:40:59.956Z,58.88
2019-04-28T01:43:38.303Z,57.32
2019-04-28T01:46:19.859Z,53.88
2019-04-28T01:48:59.914Z,54.19
2019-04-28T01:51:38.075Z,57.48
2019-04-28T01:54:17.567Z,55.74
2019-04-28T01:56:54.963Z,54.72
2019-04-28T01:59:32.100Z,55.87
2019-04-28T02:02:10.353Z,55.27
2019-04-28T02:04:49.909Z,54.47
2019-04-28T02:07:32.918Z,55.04
2019-04-28T02:10:11.132Z,56.01
2019-04-28T02:12:50.301Z,57.17
2019-04-28T02:15:30.060Z,56.53
2019-04-28T02:18:09.998Z,53.32
2019-04-28T02:20:51.882Z,53.63
2019-04-28T02:23:32.815Z,51.57
2019-04-28T02:26:12.078Z,52.01
2019-04-28T02:28:50.440Z,51.32
2019-04-28T02:31:27.438Z,52.03
2019-04-28T02:34:04.925Z,51.81
2019-04-28T02:36:43.525Z,51.66
2019-04-28T02:39:21.205Z,50.02
2019-04-28T02:42:00.994Z,52.94
2019-04-28T02:44:40.263Z,52.34
2019-04-28T02:47:17.207Z,51.34
2019-04-28T02:50:02.535Z,54.72
2019-04-28T02:53:04.465Z,53.52
2019-04-28T02:55:42.126Z,53.02
2019-04-28T02:58:22.373Z,52.08
2019-04-28T03:01:10.709Z,53.38
2019-04-28T03:03:40.838Z,53.41
2019-04-28T03:06:20.662Z,54.61
2019-04-28T03:09:00.209Z,52.19
2019-04-28T03:11:37.600Z,50.49
2019-04-28T03:14:15.045Z,52.23
2019-04-28T03:16:52.680Z,51.40
2019-04-28T03:19:33.778Z,50.13
2019-04-28T03:22:11.563Z,50.86
2019-04-28T03:24:51.273Z,48.83
2019-04-28T03:28:03.134Z,47.06
2019-04-28T03:31:34.958Z,50.27
2019-04-28T03:33:48.972Z,50.72
2019-04-28T03:36:24.285Z,49.18
2019-04-28T03:39:02.002Z,50.39
2019-04-28T03:41:41.339Z,50.85
2019-04-28T03:44:20.852Z,49.27
2019-04-28T03:47:02.743Z,49.76
2019-04-28T03:49:37.391Z,50.43
2019-04-28T03:52:15.191Z,48.87
2019-04-28T03:54:53.662Z,46.05
2019-04-28T03:57:31.680Z,49.42
2019-04-28T04:00:12.098Z,50.81
2019-04-28T04:02:51.771Z,49.05
2019-04-28T04:05:30.609Z,47.51
2019-04-28T04:08:10.669Z,44.87
2019-04-28T04:11:00.275Z,40.82
2019-04-28T04:13:51.405Z,43.53
2019-04-28T04:16:47.323Z,38.17
2019-04-28T04:19:26.752Z,45.53
2019-04-28T04:22:04.342Z,44.96
2019-04-28T04:24:42.981Z,43.75
2019-04-28T04:27:21.220Z,45.44
2019-04-28T04:30:01.764Z,45.54
2019-04-28T04:32:41.154Z,47.24
2019-04-28T04:35:21.426Z,49.08
2019-04-28T04:38:00.462Z,46.76
2019-04-28T04:40:38.141Z,44.24
2019-04-28T04:43:15.984Z,48.18
2019-04-28T04:45:56.532Z,48.70
2019-04-28T04:48:33.894Z,49.65
2019-04-28T04:51:11.285Z,49.13
2019-04-28T04:53:50.978Z,51.10
2019-04-28T04:56:30.026Z,47.37
2019-04-28T04:59:10.276Z,48.41
2019-04-28T05:01:54.689Z,48.00
2019-04-28T05:04:41.715Z,49.11
2019-04-28T05:07:20.698Z,47.61
2019-04-28T05:09:59.536Z,49.14
2019-04-28T05:12:37.556Z,51.15
2019-04-28T05:15:15.495Z,50.10
2019-04-28T05:17:53.145Z,52.61
2019-04-28T05:20:30.950Z,50.62
2019-04-28T05:23:25.530Z,50.85
2019-04-28T05:26:07.914Z,52.36
2019-04-28T05:28:50.471Z,49.15
2019-04-28T05:31:24.432Z,50.18
2019-04-28T05:34:04.235Z,49.50
2019-04-28T05:36:44.666Z,52.08
2019-04-28T05:39:23.125Z,50.51
2019-04-28T05:42:01.026Z,50.34
2019-04-28T05:44:40.594Z,50.85
2019-04-28T05:47:20.344Z,47.19
2019-04-28T05:50:13.170Z,49.31
2019-04-28T05:53:10.626Z,49.01
2019-04-28T05:55:56.022Z,47.45
2019-04-28T05:58:58.072Z,47.67
2019-04-28T06:01:54.597Z,47.56
2019-04-28T06:04:33.496Z,46.38
2019-04-28T06:07:22.325Z,47.91
2019-04-28T06:10:01.568Z,47.46
2019-04-28T06:12:40.602Z,48.45
2019-04-28T06:15:20.403Z,47.64
2019-04-28T06:17:57.823Z,47.59
2019-04-28T06:20:35.296Z,48.77
2019-04-28T06:23:13.809Z,48.69
2019-04-28T06:25:52.307Z,49.06
2019-04-28T06:28:29.422Z,46.13
2019-04-28T06:31:07.259Z,46.62
2019-04-28T06:33:46.194Z,47.38
2019-04-28T06:36:23.877Z,47.07
2019-04-28T06:39:01.553Z,46.47
2019-04-28T06:41:41.280Z,47.09
2019-04-28T06:44:19.846Z,46.46
2019-04-28T06:46:56.999Z,47.24
2019-04-28T06:49:34.231Z,48.02
2019-04-28T06:52:12.352Z,47.20
2019-04-28T06:54:50.221Z,47.58
2019-04-28T06:57:27.783Z,48.20
2019-04-28T07:00:06.427Z,48.50
2019-04-28T07:02:44.391Z,48.15
2019-04-28T07:05:22.977Z,46.65
2019-04-28T07:08:01.041Z,47.23
2019-04-28T07:10:38.713Z,48.27
2019-04-28T07:13:17.288Z,48.06
2019-04-28T07:15:56.239Z,47.01
2019-04-28T07:18:33.421Z,45.83
2019-04-28T07:21:22.443Z,45.01
2019-04-28T07:24:00.654Z,44.95
2019-04-28T07:26:40.173Z,46.68
2019-04-28T07:29:21.052Z,45.82
2019-04-28T07:31:58.429Z,48.21
2019-04-28T07:34:36.364Z,47.52
2019-04-28T07:37:14.345Z,47.98
2019-04-28T07:39:52.217Z,47.92
2019-04-28T07:42:29.311Z,45.74
2019-04-28T07:45:07.799Z,47.14
2019-04-28T07:47:45.252Z,46.10
2019-04-28T07:50:22.215Z,46.37
2019-04-28T07:53:05.361Z,47.75
2019-04-28T07:55:42.553Z,46.35
2019-04-28T07:58:20.436Z,47.44
2019-04-28T08:00:57.775Z,48.37
2019-04-28T08:03:48.518Z,47.99
2019-04-28T08:06:14.835Z,46.61
2019-04-28T08:08:53.279Z,45.53
2019-04-28T08:11:31.299Z,46.38
2019-04-28T08:14:09.327Z,46.47
2019-04-28T08:16:49.335Z,47.57
2019-04-28T08:19:28.614Z,47.06
2019-04-28T08:22:05.911Z,45.91
2019-04-28T08:24:43.731Z,46.29
2019-04-28T08:27:21.494Z,44.32
2019-04-28T08:29:59.142Z,45.67
2019-04-28T08:32:54.000Z,45.24
2019-04-28T08:35:32.322Z,46.13
2019-04-28T08:38:09.682Z,44.67
2019-04-28T08:40:48.627Z,47.00
2019-04-28T08:43:27.459Z,46.77
2019-04-28T08:46:04.721Z,47.34
2019-04-28T08:48:43.370Z,47.00
2019-04-28T08:51:21.582Z,47.34
2019-04-28T08:53:59.540Z,47.26
2019-04-28T08:56:37.253Z,46.29
2019-04-28T08:59:15.017Z,46.47
2019-04-28T09:01:52.712Z,47.12
2019-04-28T09:04:30.278Z,48.67
2019-04-28T09:07:07.942Z,49.16
2019-04-28T09:09:45.154Z,48.25
2019-04-28T09:12:23.531Z,48.86
2019-04-28T09:15:01.217Z,46.85
2019-04-28T09:17:40.992Z,49.23
2019-04-28T09:20:19.986Z,49.46
2019-04-28T09:22:57.722Z,48.36
2019-04-28T09:25:35.720Z,46.68
2019-04-28T09:28:13.495Z,48.71
2019-04-28T09:30:51.085Z,49.44
2019-04-28T09:33:28.255Z,48.91
2019-04-28T09:36:05.546Z,48.21
2019-04-28T09:38:42.761Z,48.23
2019-04-28T09:41:22.878Z,47.71
2019-04-28T09:44:07.494Z,49.46
2019-04-28T09:46:45.264Z,49.14
2019-04-28T09:49:22.502Z,49.55
2019-04-28T09:52:00.378Z,50.36
2019-04-28T09:54:37.647Z,50.36
2019-04-28T09:57:15.421Z,52.04
2019-04-28T09:59:52.970Z,51.75
2019-04-28T10:02:30.966Z,48.95
2019-04-28T10:08:11.530Z,52.96
2019-04-28T10:14:34.305Z,48.95
2019-04-28T10:16:55.421Z,48.37
2019-04-28T10:19:33.865Z,46.71
2019-04-28T10:22:11.058Z,47.83
2019-04-28T10:24:48.541Z,47.31
2019-04-28T10:27:25.950Z,47.63
2019-04-28T10:30:04.208Z,46.83
2019-04-28T10:32:42.628Z,47.30
2019-04-28T10:35:20.339Z,48.28
2019-04-28T10:37:57.916Z,50.09
2019-04-28T10:41:02.878Z,48.39
2019-04-28T10:43:40.566Z,48.51
2019-04-28T10:46:17.972Z,49.55
2019-04-28T10:48:55.287Z,51.83
2019-04-28T10:51:33.834Z,50.88
2019-04-28T10:54:10.872Z,50.05
2019-04-28T10:56:48.578Z,50.97
2019-04-28T10:59:25.971Z,51.10
2019-04-28T11:02:03.634Z,51.92
2019-04-28T11:04:49.042Z,52.17
2019-04-28T11:07:26.724Z,52.42
2019-04-28T11:10:09.971Z,48.91
2019-04-28T11:12:48.113Z,50.08
2019-04-28T11:15:35.473Z,51.67
2019-04-28T11:18:13.864Z,52.19
2019-04-28T11:20:50.892Z,53.05
2019-04-28T11:23:29.626Z,53.31
2019-04-28T11:26:06.941Z,53.48
2019-04-28T11:28:44.261Z,54.67
2019-04-28T11:31:24.221Z,54.34
2019-04-28T11:34:11.436Z,53.94
2019-04-28T11:36:48.653Z,54.91
2019-04-28T11:39:35.009Z,55.80
2019-04-28T11:42:12.372Z,57.10
2019-04-28T11:44:50.114Z,56.36
2019-04-28T11:47:27.398Z,57.24
2019-04-28T11:50:06.155Z,57.06
2019-04-28T11:52:43.416Z,57.07
2019-04-28T11:55:22.161Z,57.30
2019-04-28T11:57:59.185Z,57.64
2019-04-28T12:00:37.411Z,58.21
2019-04-28T12:03:14.355Z,59.22
2019-04-28T12:05:52.920Z,60.20
2019-04-28T12:08:30.086Z,60.46
2019-04-28T12:11:17.604Z,59.97
2019-04-28T12:14:18.631Z,59.75
2019-04-28T12:17:14.592Z,60.28
2019-04-28T12:19:55.627Z,61.44
2019-04-28T12:22:33.344Z,61.61
2019-04-28T12:25:10.821Z,61.19
2019-04-28T12:27:50.148Z,60.87
2019-04-28T12:30:27.041Z,59.96
2019-04-28T12:33:04.793Z,59.66
2019-04-28T12:35:48.056Z,58.74
2019-04-28T12:38:21.679Z,59.25
2019-04-28T12:40:58.668Z,59.49
2019-04-28T12:43:36.462Z,59.35
2019-04-28T12:46:13.843Z,60.11
2019-04-28T12:48:55.176Z,61.32
2019-04-28T12:51:32.384Z,61.78
2019-04-28T12:54:11.194Z,61.72
2019-04-28T12:56:48.757Z,61.31
2019-04-28T12:59:33.752Z,61.08
2019-04-28T13:02:36.661Z,62.46
2019-04-28T13:05:15.727Z,63.25
2019-04-28T13:07:53.147Z,64.68
2019-04-28T13:10:30.973Z,64.62
2019-04-28T13:13:08.364Z,65.01
2019-04-28T13:15:46.525Z,64.70
2019-04-28T13:18:24.045Z,63.47
2019-04-28T13:21:02.174Z,62.97
2019-04-28T13:23:39.783Z,64.69
2019-04-28T13:26:16.913Z,63.94
2019-04-28T13:28:54.289Z,63.61
2019-04-28T13:31:33.017Z,63.05
2019-04-28T13:34:11.761Z,63.58
2019-04-28T13:36:49.515Z,64.87
2019-04-28T13:39:32.501Z,63.54
2019-04-28T13:42:10.464Z,64.66
2019-04-28T13:44:54.620Z,63.90
2019-04-28T13:47:33.488Z,64.10
2019-04-28T13:50:19.942Z,63.83
2019-04-28T13:52:58.012Z,64.60
2019-04-28T13:55:59.733Z,63.10
2019-04-28T13:58:40.286Z,63.34
2019-04-28T14:01:35.370Z,63.08
2019-04-28T14:04:28.188Z,63.27
2019-04-28T14:07:08.177Z,63.92
2019-04-28T14:09:45.669Z,64.87
2019-04-28T14:12:23.120Z,65.53
2019-04-28T14:15:01.610Z,65.92
2019-04-28T14:17:39.980Z,65.97
2019-04-28T14:20:18.490Z,65.42
2019-04-28T14:22:56.046Z,65.16
2019-04-28T14:25:33.770Z,66.87
2019-04-28T14:28:10.999Z,67.16
2019-04-28T14:30:48.741Z,66.08
2019-04-28T14:33:26.061Z,66.85
2019-04-28T14:36:05.427Z,66.10
2019-04-28T14:38:43.296Z,66.58
2019-04-28T14:41:20.840Z,66.44
2019-04-28T14:43:58.408Z,66.55
2019-04-28T14:46:36.761Z,67.53
2019-04-28T14:49:13.907Z,59.23
2019-04-28T14:51:51.690Z,68.34
2019-04-28T14:54:28.919Z,66.94
2019-04-28T14:57:06.637Z,66.00
2019-04-28T14:59:45.323Z,64.85
2019-04-28T15:02:44.556Z,64.74
2019-04-28T15:05:30.307Z,64.45
2019-04-28T15:08:36.248Z,64.00
2019-04-28T15:11:20.039Z,63.91
2019-04-28T15:13:56.964Z,63.23
2019-04-28T15:16:33.804Z,62.96
2019-04-28T15:19:12.123Z,62.67
2019-04-28T15:21:51.132Z,63.13
2019-04-28T15:24:29.957Z,63.02
2019-04-28T15:27:07.349Z,63.91
2019-04-28T15:29:45.404Z,63.06
2019-04-28T15:32:22.374Z,63.14
2019-04-28T15:35:00.201Z,64.04
2019-04-28T15:37:38.067Z,64.16
2019-04-28T15:40:18.284Z,64.81
2019-04-28T15:42:55.528Z,64.64
2019-04-28T15:45:33.468Z,65.20
2019-04-28T15:48:11.087Z,66.13
2019-04-28T15:50:51.100Z,65.60
2019-04-28T15:53:28.350Z,65.58
2019-04-28T15:56:27.774Z,65.13
2019-04-28T15:59:05.316Z,65.41
2019-04-28T16:01:43.275Z,65.34
2019-04-28T16:04:20.611Z,65.45
2019-04-28T16:06:57.836Z,66.18
2019-04-28T16:09:35.770Z,66.58
2019-04-28T16:12:14.674Z,67.12
2019-04-28T16:14:52.184Z,66.30
2019-04-28T16:17:30.412Z,67.21
2019-04-28T16:20:08.135Z,67.19
2019-04-28T16:22:47.182Z,66.34
2019-04-28T16:25:25.442Z,66.48
2019-04-28T16:28:03.076Z,67.44
2019-04-28T16:30:40.600Z,67.17
2019-04-28T16:33:18.724Z,67.60
2019-04-28T16:35:57.459Z,66.81
2019-04-28T16:38:35.664Z,66.58
2019-04-28T16:41:15.478Z,67.18
2019-04-28T16:43:57.404Z,67.20
2019-04-28T16:46:34.728Z,68.30
2019-04-28T16:49:12.105Z,68.23
2019-04-28T16:51:49.118Z,68.18
2019-04-28T16:54:27.697Z,67.88
2019-04-28T16:57:23.244Z,67.23
2019-04-28T17:00:22.135Z,69.41
2019-04-28T17:02:59.524Z,68.83
2019-04-28T17:05:37.205Z,67.17
2019-04-28T17:08:14.337Z,67.22
2019-04-28T17:10:51.449Z,68.31
2019-04-28T17:13:29.346Z,68.28
2019-04-28T17:16:09.263Z,67.40
2019-04-28T17:18:47.180Z,67.72
2019-04-28T17:21:27.177Z,67.50
2019-04-28T17:24:04.498Z,67.35
2019-04-28T17:26:44.130Z,68.01
2019-04-28T17:29:21.238Z,69.81
2019-04-28T17:31:59.259Z,68.92
2019-04-28T17:34:36.664Z,68.63
2019-04-28T17:37:15.637Z,68.17
2019-04-28T17:39:52.711Z,69.14
2019-04-28T17:42:30.587Z,68.52
2019-04-28T17:45:09.399Z,68.15
2019-04-28T17:47:48.265Z,68.13
2019-04-28T17:50:37.140Z,67.96
2019-04-28T17:53:15.444Z,68.04
2019-04-28T17:55:52.499Z,69.40
2019-04-28T17:58:30.386Z,71.07
2019-04-28T18:01:26.004Z,71.16
2019-04-28T18:04:20.369Z,70.55
2019-04-28T18:07:02.790Z,70.81
2019-04-28T18:09:40.711Z,71.93
2019-04-28T18:12:19.426Z,71.68
2019-04-28T18:15:00.792Z,71.77
2019-04-28T18:17:56.283Z,73.00
2019-04-28T18:20:35.244Z,71.93
2019-04-28T18:23:12.766Z,70.58
2019-04-28T18:25:50.287Z,71.17
2019-04-28T18:28:28.297Z,71.76
2019-04-28T18:31:28.009Z,71.06
2019-04-28T18:34:22.170Z,70.10
2019-04-28T18:37:21.941Z,69.70
2019-04-28T18:40:16.562Z,69.27
2019-04-28T18:43:17.086Z,67.20
2019-04-28T18:45:54.965Z,69.22
2019-04-28T18:48:32.820Z,69.42
2019-04-28T18:51:11.673Z,67.38
2019-04-28T18:53:50.038Z,66.65
2019-04-28T18:56:27.165Z,67.65
2019-04-28T18:59:05.381Z,67.98
2019-04-28T19:02:03.754Z,67.98
2019-04-28T19:04:42.198Z,68.21
2019-04-28T19:07:23.945Z,69.42
2019-04-28T19:10:17.284Z,69.12
2019-04-28T19:13:16.316Z,68.43
2019-04-28T19:16:16.534Z,68.66
2019-04-28T19:18:59.393Z,69.78
2019-04-28T19:21:39.149Z,69.51
2019-04-28T19:24:16.823Z,69.59
2019-04-28T19:26:56.747Z,70.82
2019-04-28T19:29:34.272Z,70.28
2019-04-28T19:32:11.700Z,69.53
2019-04-28T19:34:49.178Z,68.90
2019-04-28T19:37:27.262Z,70.30
2019-04-28T19:40:04.569Z,71.31
2019-04-28T19:42:43.543Z,70.84
2019-04-28T19:45:21.734Z,71.90
2019-04-28T19:48:00.540Z,72.35
2019-04-28T19:50:38.220Z,71.19
2019-04-28T19:53:16.228Z,70.97
2019-04-28T19:56:03.251Z,71.29
2019-04-28T19:58:52.395Z,71.83
2019-04-28T20:01:32.545Z,71.43
2019-04-28T20:04:10.376Z,71.18
2019-04-28T20:06:48.097Z,70.89
2019-04-28T20:09:26.597Z,71.06
2019-04-28T20:12:04.097Z,69.74
2019-04-28T20:14:42.292Z,68.63
2019-04-28T20:17:19.622Z,69.20
2019-04-28T20:19:57.873Z,69.38
2019-04-28T20:22:37.514Z,69.20
2019-04-28T20:25:16.694Z,69.26
2019-04-28T20:27:54.309Z,68.94
2019-04-28T20:30:33.867Z,68.62
2019-04-28T20:33:11.689Z,69.07
2019-04-28T20:35:54.366Z,68.41
2019-04-28T20:38:33.268Z,68.31
2019-04-28T20:41:33.238Z,68.31
2019-04-28T20:44:10.327Z,68.65
2019-04-28T20:46:47.354Z,69.66
2019-04-28T20:49:25.022Z,69.15
2019-04-28T20:52:03.772Z,67.92
2019-04-28T20:54:42.496Z,67.78
2019-04-28T20:57:22.642Z,68.36
2019-04-28T21:00:01.177Z,67.79
2019-04-28T21:02:42.132Z,66.11
2019-04-28T21:05:19.783Z,66.24
2019-04-28T21:07:58.592Z,67.21
2019-04-28T21:10:38.218Z,66.93
2019-04-28T21:13:20.381Z,66.39
2019-04-28T21:15:57.775Z,66.86
2019-04-28T21:18:35.426Z,67.13
2019-04-28T21:21:13.423Z,67.56
2019-04-28T21:23:52.114Z,67.81
2019-04-28T21:26:30.140Z,68.54
2019-04-28T21:29:10.321Z,67.95
2019-04-28T21:31:49.490Z,67.76
2019-04-28T21:34:28.082Z,67.85
2019-04-28T21:37:05.676Z,67.89
2019-04-28T21:39:43.903Z,67.69
2019-04-28T21:42:25.256Z,67.03
2019-04-28T21:45:20.332Z,68.53
2019-04-28T21:47:58.075Z,67.45
2019-04-28T21:50:35.849Z,66.65
2019-04-28T21:53:13.283Z,66.82
2019-04-28T21:55:51.860Z,67.68
2019-04-28T21:58:33.422Z,66.95
2019-04-28T22:01:11.176Z,67.57
2019-04-28T22:03:49.098Z,68.63
2019-04-28T22:06:28.946Z,69.17
2019-04-28T22:09:07.830Z,68.94
2019-04-28T22:11:47.025Z,68.83
2019-04-28T22:14:24.379Z,70.21
2019-04-28T22:17:02.991Z,70.30
2019-04-28T22:19:41.664Z,69.67
2019-04-28T22:22:20.241Z,68.70
2019-04-28T22:25:03.708Z,69.70
2019-04-28T22:27:43.403Z,69.66
2019-04-28T22:30:22.265Z,68.96
2019-04-28T22:33:03.148Z,67.63
2019-04-28T22:35:41.851Z,66.55
2019-04-28T22:38:21.471Z,67.62
2019-04-28T22:40:59.675Z,66.69
2019-04-28T22:43:38.123Z,65.83
2019-04-28T22:46:16.458Z,66.43
2019-04-28T22:48:57.222Z,68.22
2019-04-28T22:51:35.823Z,66.92
2019-04-28T22:54:26.001Z,66.76
2019-04-28T22:57:15.457Z,68.22
2019-04-28T22:59:53.893Z,69.53
2019-04-28T23:02:32.730Z,69.80
2019-04-28T23:05:11.794Z,69.63
2019-04-28T23:07:49.266Z,71.49
2019-04-28T23:10:27.692Z,70.60
2019-04-28T23:13:05.321Z,70.06
2019-04-28T23:15:43.144Z,71.96
2019-04-28T23:18:20.391Z,71.51
2019-04-28T23:21:01.916Z,69.58
2019-04-28T23:23:43.316Z,69.01
2019-04-28T23:26:21.240Z,70.90
2019-04-28T23:29:00.540Z,70.84
2019-04-28T23:31:39.775Z,70.52
2019-04-28T23:34:18.606Z,70.21
2019-04-28T23:36:57.644Z,69.72
2019-04-28T23:39:35.015Z,68.48
2019-04-28T23:42:28.906Z,68.55
2019-04-28T23:45:06.513Z,69.30
2019-04-28T23:47:44.009Z,68.57
2019-04-28T23:50:29.417Z,67.26
2019-04-28T23:53:12.110Z,68.17
2019-04-28T23:55:49.432Z,68.52
2019-04-28T23:58:27.430Z,68.09
